createdAt,value
2018-06-04T00:01:03.788Z,99358.19
2018-06-04T00:03:33.633Z,99357.94
2018-06-04T00:06:03.465Z,99353.91
2018-06-04T00:08:33.308Z,99357.73
2018-06-04T00:11:03.161Z,99355.29
2018-06-04T00:13:33.012Z,99354.48
2018-06-04T00:16:02.857Z,99344.91
2018-06-04T00:18:32.709Z,99348.16
2018-06-04T00:21:02.605Z,99338.57
2018-06-04T00:23:32.516Z,99344.53
2018-06-04T00:26:02.373Z,99345.55
2018-06-04T00:28:32.275Z,99342.79
2018-06-04T00:31:02.121Z,99340.45
2018-06-04T00:33:31.937Z,99336.55
2018-06-04T00:36:01.823Z,99348.77
2018-06-04T00:38:31.749Z,99347.55
2018-06-04T00:41:01.518Z,99337.39
2018-06-04T00:43:31.364Z,99341.96
2018-06-04T00:46:01.214Z,99338.63
2018-06-04T00:48:31.153Z,99340.09
2018-06-04T00:51:00.961Z,99335.73
2018-06-04T00:53:30.792Z,99340.33
2018-06-04T00:56:11.474Z,99330.55
2018-06-04T00:58:41.311Z,99327.34
2018-06-04T01:01:11.128Z,99325.19
2018-06-04T01:03:40.992Z,99323.22
2018-06-04T01:06:10.861Z,99325.53
2018-06-04T01:08:40.740Z,99322.86
2018-06-04T01:11:11.047Z,99316.17
2018-06-04T01:13:40.934Z,99318.81
2018-06-04T01:16:10.756Z,99307.85
2018-06-04T01:18:40.663Z,99313.90
2018-06-04T01:21:10.544Z,99309.59
2018-06-04T01:23:40.585Z,99310.91
2018-06-04T01:26:10.397Z,99307.34
2018-06-04T01:28:40.241Z,99306.02
2018-06-04T01:31:10.044Z,99296.95
2018-06-04T01:33:39.880Z,99298.75
2018-06-04T01:36:09.689Z,99293.48
2018-06-04T01:38:39.524Z,99295.98
2018-06-04T01:41:09.321Z,99299.83
2018-06-04T01:43:39.193Z,99294.03
2018-06-04T01:46:09.040Z,99289.75
2018-06-04T01:48:38.988Z,99289.98
2018-06-04T01:51:08.850Z,99285.13
2018-06-04T01:53:38.753Z,99290.23
2018-06-04T01:56:08.588Z,99289.91
2018-06-04T01:58:38.412Z,99282.69
2018-06-04T02:01:08.287Z,99290.55
2018-06-04T02:03:38.104Z,99283.26
2018-06-04T02:06:07.973Z,99292.53
2018-06-04T02:08:37.763Z,99295.43
2018-06-04T02:11:07.628Z,99290.31
2018-06-04T02:13:37.529Z,99295.62
2018-06-04T02:16:07.346Z,99287.33
2018-06-04T02:18:37.181Z,99293.36
2018-06-04T02:21:06.986Z,99287.48
2018-06-04T02:23:36.836Z,99287.58
2018-06-04T02:26:06.668Z,99290.50
2018-06-04T02:28:36.523Z,99292.30
2018-06-04T02:31:06.368Z,99295.28
2018-06-04T02:33:36.209Z,99291.63
2018-06-04T02:36:06.054Z,99295.69
2018-06-04T02:38:35.861Z,99292.61
2018-06-04T02:41:05.727Z,99290.26
2018-06-04T02:43:35.565Z,99292.53
2018-06-04T02:46:05.454Z,99293.48
2018-06-04T02:48:35.281Z,99286.99
2018-06-04T02:51:05.136Z,99289.03
2018-06-04T02:53:34.964Z,99295.30
2018-06-04T02:56:04.879Z,99292.44
2018-06-04T02:58:34.713Z,99296.27
2018-06-04T03:01:04.605Z,99293.99
2018-06-04T03:03:34.411Z,99291.55
2018-06-04T03:06:04.322Z,99293.28
2018-06-04T03:08:34.149Z,99298.55
2018-06-04T03:11:04.042Z,99300.09
2018-06-04T03:13:33.957Z,99297.81
2018-06-04T03:16:03.804Z,99302.19
2018-06-04T03:18:33.694Z,99300.27
2018-06-04T03:21:03.470Z,99307.97
2018-06-04T03:23:33.285Z,99305.28
2018-06-04T03:26:03.080Z,99303.34
2018-06-04T03:28:32.916Z,99311.14
2018-06-04T03:31:02.751Z,99307.97
2018-06-04T03:33:32.581Z,99312.11
2018-06-04T03:36:02.377Z,99312.41
2018-06-04T03:38:32.205Z,99309.41
2018-06-04T03:41:02.005Z,99310.77
2018-06-04T03:43:31.789Z,99310.91
2018-06-04T03:46:01.619Z,99315.90
2018-06-04T03:48:31.431Z,99314.93
2018-06-04T03:51:01.281Z,99309.78
2018-06-04T03:53:31.084Z,99316.33
2018-06-04T03:56:00.964Z,99315.08
2018-06-04T03:58:30.785Z,99316.88
2018-06-04T04:01:00.620Z,99319.39
2018-06-04T04:03:30.496Z,99324.45
2018-06-04T04:06:00.281Z,99323.73
2018-06-04T04:08:30.135Z,99323.46
2018-06-04T04:10:59.970Z,99319.19
2018-06-04T04:13:29.780Z,99318.70
2018-06-04T04:15:59.604Z,99319.38
2018-06-04T04:18:29.432Z,99323.64
2018-06-04T04:20:59.320Z,99318.09
2018-06-04T04:23:29.106Z,99325.98
2018-06-04T04:25:58.940Z,99323.23
2018-06-04T04:28:28.841Z,99315.19
2018-06-04T04:30:58.677Z,99317.41
2018-06-04T04:33:28.511Z,99317.09
2018-06-04T04:35:58.305Z,99327.95
2018-06-04T04:38:28.272Z,99319.02
2018-06-04T04:40:58.064Z,99314.41
2018-06-04T04:43:27.925Z,99315.70
2018-06-04T04:45:57.734Z,99320.23
2018-06-04T04:48:27.578Z,99326.78
2018-06-04T04:50:57.415Z,99324.08
2018-06-04T04:53:27.205Z,99324.38
2018-06-04T04:55:57.021Z,99321.95
2018-06-04T04:58:26.901Z,99314.04
2018-06-04T05:00:56.741Z,99317.34
2018-06-04T05:03:26.637Z,99313.01
2018-06-04T05:05:56.489Z,99314.84
2018-06-04T05:08:26.304Z,99308.87
2018-06-04T05:10:56.144Z,99310.05
2018-06-04T05:13:26.269Z,99312.77
2018-06-04T05:15:56.152Z,99316.48
2018-06-04T05:18:25.997Z,99316.66
2018-06-04T05:20:55.828Z,99326.88
2018-06-04T05:23:25.673Z,99316.76
2018-06-04T05:25:55.520Z,99325.69
2018-06-04T05:28:25.464Z,99326.92
2018-06-04T05:30:55.271Z,99331.76
2018-06-04T05:33:25.136Z,99339.22
2018-06-04T05:35:54.972Z,99329.87
2018-06-04T05:38:24.800Z,99327.84
2018-06-04T05:40:54.892Z,99341.79
2018-06-04T05:43:24.768Z,99338.64
2018-06-04T05:45:54.568Z,99338.74
2018-06-04T05:48:24.501Z,99342.82
2018-06-04T05:50:54.352Z,99344.76
2018-06-04T05:53:24.184Z,99337.00
2018-06-04T05:55:54.005Z,99340.39
2018-06-04T05:58:23.873Z,99344.44
2018-06-04T06:00:53.694Z,99339.41
2018-06-04T06:03:23.609Z,99345.20
2018-06-04T06:05:53.455Z,99343.80
2018-06-04T06:08:23.350Z,99337.64
2018-06-04T06:10:53.195Z,99338.23
2018-06-04T06:13:23.090Z,99337.20
2018-06-04T06:15:53.569Z,99326.50
2018-06-04T06:18:23.412Z,99325.47
2018-06-04T06:20:53.244Z,99327.43
2018-06-04T06:23:23.128Z,99330.97
2018-06-04T06:25:53.180Z,99327.25
2018-06-04T06:28:22.992Z,99327.74
2018-06-04T06:30:52.913Z,99324.30
2018-06-04T06:33:22.746Z,99315.63
2018-06-04T06:35:52.633Z,99320.64
2018-06-04T06:38:22.778Z,99326.30
2018-06-04T06:40:52.665Z,99326.78
2018-06-04T06:43:22.568Z,99321.30
2018-06-04T06:45:52.424Z,99328.13
2018-06-04T06:48:22.289Z,99323.95
2018-06-04T06:50:52.384Z,99326.17
2018-06-04T06:53:22.476Z,99319.72
2018-06-04T06:55:52.417Z,99311.91
2018-06-04T06:58:22.369Z,99309.89
2018-06-04T07:00:52.217Z,99310.55
2018-06-04T07:03:22.075Z,99310.16
2018-06-04T07:05:52.041Z,99305.70
2018-06-04T07:08:22.044Z,99303.00
2018-06-04T07:10:51.947Z,99307.92
2018-06-04T07:13:22.116Z,99301.41
2018-06-04T07:15:52.079Z,99302.56
2018-06-04T07:18:22.934Z,99297.33
2018-06-04T07:20:52.792Z,99297.88
2018-06-04T07:23:22.657Z,99300.06
2018-06-04T07:25:52.536Z,99299.70
2018-06-04T07:28:22.402Z,99300.41
2018-06-04T07:30:52.312Z,99287.73
2018-06-04T07:33:22.161Z,99295.24
2018-06-04T07:35:52.013Z,99292.53
2018-06-04T07:38:21.881Z,99275.14
2018-06-04T07:40:51.792Z,99296.08
2018-06-04T07:43:21.768Z,99291.20
2018-06-04T07:45:51.745Z,99285.56
2018-06-04T07:48:21.738Z,99285.45
2018-06-04T07:50:51.675Z,99135.27
2018-06-04T07:53:21.705Z,99273.08
2018-06-04T07:55:51.568Z,99287.19
2018-06-04T07:58:21.388Z,99284.05
2018-06-04T08:00:51.328Z,99217.98
2018-06-04T08:03:21.309Z,99278.38
2018-06-04T08:05:51.618Z,99279.78
2018-06-04T08:08:22.284Z,99273.05
2018-06-04T08:10:52.274Z,99273.49
2018-06-04T08:13:22.133Z,99269.59
2018-06-04T08:15:52.062Z,99266.38
2018-06-04T08:18:21.942Z,99270.07
2018-06-04T08:20:51.907Z,99274.12
2018-06-04T08:23:21.780Z,99262.09
2018-06-04T08:25:51.783Z,99266.78
2018-06-04T08:28:21.774Z,99260.84
2018-06-04T08:30:53.041Z,99258.28
2018-06-04T08:33:23.019Z,99179.03
2018-06-04T08:35:52.912Z,99258.45
2018-06-04T08:38:23.008Z,99258.66
2018-06-04T08:40:52.950Z,99248.05
2018-06-04T08:50:07.473Z,99236.17
2018-06-04T08:52:37.433Z,99224.06
2018-06-04T08:55:07.401Z,99240.80
2018-06-04T08:57:37.222Z,99228.66
2018-06-04T09:00:07.133Z,99229.80
2018-06-04T09:02:36.996Z,99224.52
2018-06-04T09:05:06.956Z,99233.56
2018-06-04T09:07:36.953Z,99231.45
2018-06-04T09:10:06.853Z,99215.47
2018-06-04T09:12:36.801Z,99235.97
2018-06-04T09:15:06.780Z,99228.29
2018-06-04T09:17:36.672Z,99214.77
2018-06-04T09:20:06.684Z,99221.67
2018-06-04T09:22:37.491Z,99215.80
2018-06-04T09:25:07.541Z,99216.89
2018-06-04T09:27:37.530Z,99205.83
2018-06-04T09:30:07.390Z,99210.45
2018-06-04T09:32:37.321Z,99208.59
2018-06-04T09:35:07.206Z,99203.83
2018-06-04T09:37:37.213Z,99199.53
2018-06-04T09:40:07.212Z,99207.97
2018-06-04T09:42:37.089Z,99202.95
2018-06-04T09:45:07.343Z,99202.19
2018-06-04T09:47:37.228Z,99202.84
2018-06-04T09:50:07.182Z,99196.04
2018-06-04T09:52:37.073Z,99195.84
2018-06-04T09:55:06.908Z,99190.63
2018-06-04T09:57:36.913Z,99191.36
2018-06-04T10:00:07.020Z,99181.42
2018-06-04T10:02:37.064Z,99180.57
2018-06-04T10:05:07.066Z,99173.84
2018-06-04T10:07:36.918Z,99173.29
2018-06-04T10:10:06.906Z,99165.34
2018-06-04T10:15:12.345Z,99162.53
2018-06-04T10:17:42.441Z,99102.57
2018-06-04T10:20:12.530Z,99162.75
2018-06-04T10:22:42.509Z,99150.94
2018-06-04T10:25:12.570Z,99144.41
2018-06-04T10:27:42.589Z,99143.48
2018-06-04T10:30:12.993Z,99142.48
2018-06-04T10:32:43.063Z,99143.67
2018-06-04T10:35:26.064Z,99143.27
2018-06-04T10:37:56.108Z,99136.44
2018-06-04T10:40:26.134Z,99131.87
2018-06-04T10:42:56.209Z,99128.66
2018-06-04T10:45:26.772Z,99070.35
2018-06-04T10:47:56.780Z,99122.70
2018-06-04T10:50:26.802Z,99125.31
2018-06-04T10:52:56.806Z,99114.48
2018-06-04T10:55:26.900Z,99113.66
2018-06-04T10:57:56.965Z,99115.47
2018-06-04T11:00:27.045Z,99105.24
2018-06-04T11:02:57.154Z,99099.42
2018-06-04T11:05:27.347Z,99098.44
2018-06-04T11:07:57.506Z,99096.64
2018-06-04T11:10:27.606Z,99095.63
2018-06-04T11:12:57.706Z,99084.60
2018-06-04T11:15:27.857Z,99096.44
2018-06-04T11:17:58.053Z,99082.98
2018-06-04T11:20:28.277Z,99070.17
2018-06-04T11:22:58.961Z,99067.94
2018-06-04T11:25:29.026Z,99054.83
2018-06-04T11:27:59.173Z,99052.23
2018-06-04T11:30:29.295Z,99046.80
2018-06-04T11:33:00.951Z,99038.72
2018-06-04T11:35:31.153Z,99039.95
2018-06-04T11:38:01.306Z,98972.59
2018-06-04T11:40:31.522Z,99019.61
2018-06-04T11:43:01.594Z,99010.34
2018-06-04T11:45:31.634Z,99004.45
2018-06-04T11:48:01.819Z,99007.93
2018-06-04T11:50:31.905Z,99002.53
2018-06-04T11:53:01.973Z,98990.19
2018-06-04T11:55:32.094Z,98991.36
2018-06-04T11:58:02.297Z,98983.39
2018-06-04T12:00:32.386Z,98979.38
2018-06-04T12:03:02.426Z,98976.63
2018-06-04T12:05:32.566Z,98981.48
2018-06-04T12:08:02.788Z,98978.66
2018-06-04T12:10:32.765Z,98983.55
2018-06-04T12:13:02.800Z,98978.29
2018-06-04T12:15:33.081Z,98979.72
2018-06-04T12:18:03.136Z,98979.66
2018-06-04T12:20:33.224Z,98984.55
2018-06-04T12:23:03.308Z,98982.85
2018-06-04T12:25:33.414Z,98976.17
2018-06-04T12:28:03.187Z,98977.11
2018-06-04T12:30:32.997Z,98971.09
2018-06-04T12:33:02.795Z,98982.69
2018-06-04T12:35:32.891Z,98975.38
2018-06-04T12:38:02.753Z,98967.47
2018-06-04T12:40:32.644Z,98966.22
2018-06-04T12:43:02.461Z,98985.90
2018-06-04T12:45:32.296Z,99005.80
2018-06-04T12:48:02.168Z,98968.59
2018-06-04T12:50:32.051Z,98986.83
2018-06-04T12:53:01.909Z,98996.06
2018-06-04T12:55:31.764Z,98968.44
2018-06-04T12:58:01.577Z,98963.82
2018-06-04T13:00:31.405Z,98970.02
2018-06-04T13:03:01.209Z,98963.64
2018-06-04T13:05:31.161Z,98979.02
2018-06-04T13:08:01.016Z,98970.83
2018-06-04T13:10:30.972Z,98981.80
2018-06-04T13:13:01.012Z,98977.97
2018-06-04T13:15:30.872Z,98976.93
2018-06-04T13:18:00.812Z,98966.64
2018-06-04T13:20:30.755Z,98972.02
2018-06-04T13:23:00.715Z,98971.03
2018-06-04T13:25:30.530Z,98967.43
2018-06-04T13:28:00.355Z,98961.88
2018-06-04T13:30:30.252Z,98954.97
2018-06-04T13:33:00.153Z,98955.16
2018-06-04T13:35:30.077Z,98955.56
2018-06-04T13:37:59.996Z,98960.97
2018-06-04T13:40:29.948Z,98945.57
2018-06-04T13:43:00.069Z,98942.33
2018-06-04T13:45:29.964Z,98931.13
2018-06-04T13:47:59.849Z,98931.25
2018-06-04T13:50:29.684Z,98936.63
2018-06-04T13:52:59.617Z,98928.81
2018-06-04T13:55:29.432Z,98921.84
2018-06-04T13:57:59.324Z,98933.93
2018-06-04T14:00:32.604Z,98943.33
2018-06-04T14:03:03.224Z,98945.35
2018-06-04T14:05:33.159Z,98945.88
2018-06-04T14:08:03.068Z,98866.41
2018-06-04T14:10:33.016Z,98960.47
2018-06-04T14:13:02.943Z,98959.25
2018-06-04T14:15:32.964Z,98953.25
2018-06-04T14:18:02.832Z,98955.02
2018-06-04T14:20:32.769Z,98955.79
2018-06-04T14:23:02.697Z,98944.27
2018-06-04T14:25:32.683Z,98953.78
2018-06-04T14:28:02.564Z,98959.32
2018-06-04T14:30:32.527Z,98964.63
2018-06-04T14:33:02.400Z,98964.78
2018-06-04T14:35:32.257Z,98966.70
2018-06-04T14:38:02.101Z,98966.25
2018-06-04T14:40:31.948Z,98980.72
2018-06-04T14:43:01.756Z,98969.09
2018-06-04T14:45:31.615Z,98961.12
2018-06-04T14:48:01.456Z,98960.98
2018-06-04T14:50:31.742Z,98956.59
2018-06-04T14:53:02.192Z,98958.52
2018-06-04T14:55:32.118Z,98954.14
2018-06-04T14:58:01.985Z,98947.53
2018-06-04T15:00:31.912Z,98950.96
2018-06-04T15:03:01.751Z,98949.63
2018-06-04T15:05:31.546Z,98943.06
2018-06-04T15:08:01.397Z,98945.31
2018-06-04T15:10:31.244Z,98939.28
2018-06-04T15:13:01.051Z,98936.09
2018-06-04T15:15:30.873Z,98921.55
2018-06-04T15:18:00.695Z,98921.02
2018-06-04T15:20:30.613Z,98912.08
2018-06-04T15:23:00.383Z,98907.25
2018-06-04T15:25:30.254Z,98898.09
2018-06-04T15:28:00.059Z,98896.63
2018-06-04T15:30:29.959Z,98893.80
2018-06-04T15:32:59.888Z,98890.78
2018-06-04T15:35:29.680Z,98885.69
2018-06-04T15:37:59.471Z,98891.44
2018-06-04T15:40:29.311Z,98887.25
2018-06-04T15:42:59.171Z,98889.79
2018-06-04T15:45:29.092Z,98889.79
2018-06-04T15:47:59.031Z,98891.53
2018-06-04T15:50:28.889Z,98886.20
2018-06-04T15:52:58.688Z,98737.63
2018-06-04T15:55:28.469Z,98879.95
2018-06-04T15:57:58.313Z,98883.79
2018-06-04T16:00:28.143Z,98885.41
2018-06-04T16:02:57.971Z,98881.34
2018-06-04T16:05:27.778Z,98886.33
2018-06-04T16:07:57.625Z,98878.29
2018-06-04T16:10:27.424Z,98872.67
2018-06-04T16:12:57.260Z,98868.86
2018-06-04T16:15:27.140Z,98873.23
2018-06-04T16:17:56.939Z,98865.45
2018-06-04T16:20:26.861Z,98874.97
2018-06-04T16:22:56.727Z,98880.56
2018-06-04T16:25:26.536Z,98889.27
2018-06-04T16:27:56.352Z,98897.05
2018-06-04T16:30:26.152Z,98899.80
2018-06-04T16:32:55.975Z,98901.20
2018-06-04T16:35:25.832Z,98903.08
2018-06-04T16:37:55.672Z,98903.08
2018-06-04T16:40:25.532Z,98904.24
2018-06-04T16:42:55.340Z,98900.85
2018-06-04T16:45:25.150Z,98897.21
2018-06-04T16:47:54.976Z,98894.42
2018-06-04T16:50:24.827Z,98903.91
2018-06-04T16:52:54.687Z,98900.80
2018-06-04T16:55:24.540Z,98901.70
2018-06-04T16:57:54.357Z,98902.77
2018-06-04T17:00:24.176Z,98903.12
2018-06-04T17:02:54.015Z,98904.56
2018-06-04T17:05:23.815Z,98906.08
2018-06-04T17:07:53.656Z,98907.23
2018-06-04T17:10:23.488Z,98901.58
2018-06-04T17:12:53.336Z,98894.50
2018-06-04T17:15:23.200Z,98907.34
2018-06-04T17:17:53.008Z,98905.80
2018-06-04T17:20:22.860Z,98913.20
2018-06-04T17:22:52.646Z,98910.72
2018-06-04T17:25:22.483Z,98910.17
2018-06-04T17:27:52.272Z,98908.72
2018-06-04T17:30:22.089Z,98919.55
2018-06-04T17:32:51.871Z,98923.70
2018-06-04T17:35:21.716Z,98926.09
2018-06-04T17:37:51.539Z,98929.58
2018-06-04T17:40:21.347Z,98931.50
2018-06-04T17:42:51.216Z,98927.85
2018-06-04T17:45:21.015Z,98929.18
2018-06-04T17:47:50.840Z,98926.42
2018-06-04T17:50:20.660Z,98925.29
2018-06-04T17:52:50.475Z,98928.73
2018-06-04T17:55:20.310Z,98936.21
2018-06-04T17:57:50.143Z,98935.50
2018-06-04T18:00:19.976Z,98937.89
2018-06-04T18:02:49.815Z,98942.63
2018-06-04T18:05:19.600Z,98947.72
2018-06-04T18:07:49.448Z,98954.67
2018-06-04T18:10:19.231Z,98954.64
2018-06-04T18:12:49.070Z,98955.47
2018-06-04T18:15:18.933Z,98965.00
2018-06-04T18:17:48.763Z,98971.07
2018-06-04T18:20:18.608Z,98978.09
2018-06-04T18:22:48.407Z,98983.57
2018-06-04T18:25:18.236Z,98976.48
2018-06-04T18:27:48.120Z,98973.99
2018-06-04T18:30:17.956Z,98975.14
2018-06-04T18:32:47.828Z,98974.43
2018-06-04T18:35:17.636Z,98981.80
2018-06-04T18:37:47.460Z,98982.60
2018-06-04T18:40:17.280Z,98991.19
2018-06-04T18:42:47.115Z,98998.26
2018-06-04T18:45:16.932Z,99005.86
2018-06-04T18:47:46.836Z,99010.17
2018-06-04T18:50:16.708Z,99015.23
2018-06-04T18:52:46.492Z,99024.25
2018-06-04T18:55:16.324Z,99032.62
2018-06-04T18:57:46.148Z,99036.58
2018-06-04T19:00:16.000Z,99043.72
2018-06-04T19:02:45.876Z,99041.52
2018-06-04T19:05:15.708Z,99043.06
2018-06-04T19:07:45.519Z,99052.23
2018-06-04T19:10:15.365Z,99052.44
2018-06-04T19:12:45.147Z,99058.63
2018-06-04T19:15:14.987Z,99063.64
2018-06-04T19:17:44.780Z,99074.75
2018-06-04T19:20:14.583Z,99079.30
2018-06-04T19:22:44.373Z,99091.41
2018-06-04T19:25:14.204Z,99100.23
2018-06-04T19:27:43.978Z,99106.90
2018-06-04T19:30:13.801Z,99121.51
2018-06-04T19:32:43.647Z,99140.95
2018-06-04T19:35:13.453Z,99137.63
2018-06-04T19:37:43.279Z,99141.74
2018-06-04T19:40:13.068Z,99128.59
2018-06-04T19:42:42.919Z,99122.05
2018-06-04T19:45:12.716Z,99120.11
2018-06-04T19:47:42.510Z,99122.00
2018-06-04T19:50:12.276Z,99115.41
2018-06-04T19:52:42.155Z,99121.98
2018-06-04T19:55:11.991Z,99121.18
2018-06-04T19:57:41.808Z,99117.15
2018-06-04T20:00:11.570Z,99123.56
2018-06-04T20:02:41.348Z,99133.66
2018-06-04T20:05:11.216Z,99126.13
2018-06-04T20:07:40.973Z,99127.73
2018-06-04T20:10:10.912Z,99127.97
2018-06-04T20:12:40.688Z,99125.79
2018-06-04T20:15:10.536Z,99129.70
2018-06-04T20:17:40.388Z,99126.00
2018-06-04T20:20:10.380Z,99136.64
2018-06-04T20:22:40.168Z,99147.99
2018-06-04T20:25:10.042Z,99144.28
2018-06-04T20:27:39.884Z,99146.14
2018-06-04T20:30:09.727Z,99136.78
2018-06-04T20:32:39.508Z,99137.03
2018-06-04T20:35:09.423Z,99142.45
2018-06-04T20:37:39.232Z,99136.56
2018-06-04T20:40:09.045Z,99139.91
2018-06-04T20:42:38.873Z,99138.98
2018-06-04T20:45:08.672Z,99142.55
2018-06-04T20:47:38.519Z,99140.11
2018-06-04T20:50:08.358Z,99139.64
2018-06-04T20:52:38.188Z,99129.82
2018-06-04T20:55:07.983Z,99124.05
2018-06-04T20:57:37.757Z,99127.84
2018-06-04T21:00:07.557Z,99127.77
2018-06-04T21:02:37.360Z,99117.46
2018-06-04T21:05:07.139Z,99117.98
2018-06-04T21:07:36.932Z,99114.14
2018-06-04T21:10:06.768Z,99112.92
2018-06-04T21:12:36.615Z,99115.80
2018-06-04T21:15:06.387Z,99113.77
2018-06-04T21:17:36.188Z,99111.70
2018-06-04T21:20:06.020Z,99106.35
2018-06-04T21:22:35.876Z,99109.41
2018-06-04T21:25:05.754Z,99116.59
2018-06-04T21:27:35.615Z,99118.34
2018-06-04T21:30:05.420Z,99115.21
2018-06-04T21:32:35.243Z,99113.73
2018-06-04T21:35:05.168Z,99121.11
2018-06-04T21:37:34.999Z,99125.26
2018-06-04T21:40:05.160Z,99119.45
2018-06-04T21:42:34.897Z,99117.86
2018-06-04T21:45:04.775Z,99112.62
2018-06-04T21:47:34.560Z,99112.19
2018-06-04T21:50:04.459Z,99102.09
2018-06-04T21:52:34.256Z,99108.88
2018-06-04T21:55:04.088Z,99103.36
2018-06-04T21:57:33.951Z,99104.44
2018-06-04T22:00:03.880Z,99111.87
2018-06-04T22:02:33.653Z,99096.45
2018-06-04T22:05:03.499Z,99104.20
2018-06-04T22:07:33.287Z,99098.91
2018-06-04T22:10:03.134Z,99102.06
2018-06-04T22:12:32.972Z,99094.33
2018-06-04T22:15:02.780Z,99097.77
2018-06-04T22:17:32.600Z,99092.67
2018-06-04T22:20:02.402Z,99085.95
2018-06-04T22:22:32.204Z,99082.28
2018-06-04T22:25:01.964Z,99079.92
2018-06-04T22:27:31.760Z,99071.81
2018-06-04T22:30:01.520Z,99065.11
2018-06-04T22:32:31.308Z,99071.91
2018-06-04T22:35:01.128Z,99067.94
2018-06-04T22:37:30.942Z,99070.27
2018-06-04T22:40:00.784Z,99070.00
2018-06-04T22:42:30.636Z,99067.03
2018-06-04T22:45:00.576Z,99069.30
2018-06-04T22:47:30.416Z,99065.59
2018-06-04T22:50:00.294Z,99059.34
2018-06-04T22:52:30.068Z,99062.35
2018-06-04T22:54:59.880Z,99059.61
2018-06-04T22:57:29.705Z,99057.78
2018-06-04T22:59:59.565Z,99053.28
2018-06-04T23:02:29.397Z,99049.45
2018-06-04T23:04:59.264Z,99050.30
2018-06-04T23:07:29.092Z,99046.64
2018-06-04T23:09:58.908Z,99042.61
2018-06-04T23:12:28.741Z,99044.95
2018-06-04T23:14:58.525Z,99040.48
2018-06-04T23:17:28.348Z,99047.11
2018-06-04T23:19:58.185Z,99046.64
2018-06-04T23:22:28.016Z,99048.11
2018-06-04T23:24:57.811Z,99047.11
2018-06-04T23:27:27.609Z,98982.14
2018-06-04T23:29:57.435Z,99035.59
2018-06-04T23:32:27.320Z,99042.59
2018-06-04T23:34:57.189Z,99046.59
2018-06-04T23:37:27.004Z,99045.44
2018-06-04T23:39:56.896Z,99043.42
2018-06-04T23:42:26.764Z,99052.60
2018-06-04T23:44:56.566Z,99051.03
2018-06-04T23:47:26.405Z,99046.70
2018-06-04T23:49:56.280Z,99048.31
2018-06-04T23:52:26.092Z,99039.38
2018-06-04T23:54:55.925Z,99046.56
2018-06-04T23:57:25.791Z,99043.17
2018-06-04T23:59:55.635Z,99037.23
